Time;durP1;ratioP1;P1;durP2;ratioP2;P2;SDS_P1;SDS_P2;PMS_P1;PMS_P2;Temp;Humidity;BMP_temperature;BMP_pressure;BME280_temperature;BME280_humidity;BME280_pressure;Samples;Min_cycle;Max_cycle;Signal;HPM_P1;HPM_P2
2021/03/20 00:03:25;;;;;;;11.82;8.98;;;;;;;-0.97;100.00;96793.72;8383795;28;20052;-57
2021/03/20 00:07:28;;;;;;;12.70;9.18;;;;;;;-1.05;100.00;96802.72;8357342;28;20051;-59
2021/03/20 00:11:31;;;;;;;12.32;8.98;;;;;;;-1.04;100.00;96804.41;8357574;28;20045;-57
2021/03/20 00:15:34;;;;;;;11.30;8.73;;;;;;;-1.24;100.00;96803.50;8356292;28;20048;-54
2021/03/20 00:19:37;;;;;;;12.35;9.10;;;;;;;-1.30;100.00;96806.34;8353591;28;20033;-56
2021/03/20 00:23:39;;;;;;;11.68;8.60;;;;;;;-1.30;100.00;96808.09;8356266;28;20039;-55
2021/03/20 00:27:43;;;;;;;12.77;8.82;;;;;;;-1.49;100.00;96814.00;8332909;28;20051;-57
2021/03/20 00:31:46;;;;;;;11.93;8.68;;;;;;;-1.42;100.00;96809.44;8350927;28;20055;-57
2021/03/20 00:35:49;;;;;;;11.93;8.60;;;;;;;-1.45;100.00;96817.31;8354577;28;20052;-57
2021/03/20 00:39:51;;;;;;;12.30;9.13;;;;;;;-1.47;100.00;96813.97;8384648;28;20052;-55
2021/03/20 00:43:55;;;;;;;9.80;8.18;;;;;;;-1.66;100.00;96821.59;8353850;28;20028;-53
2021/03/20 00:48:05;;;;;;;11.40;8.40;;;;;;;-1.66;100.00;96831.94;8354193;28;20036;-58
2021/03/20 00:52:08;;;;;;;12.50;9.30;;;;;;;-1.78;100.00;96828.13;8353483;28;20044;-57
2021/03/20 00:56:11;;;;;;;12.38;9.20;;;;;;;-1.77;100.00;96834.97;8350853;28;20025;-58
2021/03/20 01:00:17;;;;;;;12.20;8.43;;;;;;;-1.74;100.00;96831.41;8386917;28;20044;-58
2021/03/20 01:04:20;;;;;;;10.68;8.77;;;;;;;-1.78;100.00;96828.13;8357862;28;20041;-58
2021/03/20 01:08:23;;;;;;;13.45;9.15;;;;;;;-1.67;100.00;96831.09;8356684;28;20047;-54
2021/03/20 01:12:26;;;;;;;9.73;8.73;;;;;;;-1.68;100.00;96829.44;8354205;28;20230;-58
2021/03/20 01:16:30;;;;;;;11.68;9.55;;;;;;;-1.65;100.00;96827.63;8357117;28;20029;-58
2021/03/20 01:20:33;;;;;;;12.25;9.90;;;;;;;-1.48;100.00;96826.06;8381498;28;20036;-56
2021/03/20 01:24:36;;;;;;;9.88;8.60;;;;;;;-1.54;100.00;96830.63;8357423;28;20048;-58
2021/03/20 01:28:40;;;;;;;12.05;9.20;;;;;;;-1.52;100.00;96836.56;8359984;28;20032;-58
2021/03/20 01:32:43;;;;;;;11.25;8.75;;;;;;;-1.65;100.00;96832.78;8353855;28;20040;-56
2021/03/20 01:36:47;;;;;;;10.75;8.75;;;;;;;-1.58;100.00;96835.09;8390031;28;20048;-58
2021/03/20 01:40:52;;;;;;;10.57;8.35;;;;;;;-1.62;100.00;96828.34;8359189;28;20033;-57
2021/03/20 01:45:22;;;;;;;11.02;8.75;;;;;;;-1.71;100.00;96836.47;8345044;28;20379;-55
2021/03/20 01:49:28;;;;;;;10.55;8.98;;;;;;;-1.52;100.00;96829.66;8323556;28;20037;-55
2021/03/20 01:53:38;;;;;;;11.85;9.50;;;;;;;-1.35;100.00;96828.97;8341578;28;20032;-59
2021/03/20 01:57:44;;;;;;;13.90;10.00;;;;;;;-1.30;100.00;96832.22;8373303;28;20076;-57
2021/03/20 02:01:46;;;;;;;13.25;9.45;;;;;;;-0.94;100.00;96820.38;8358332;28;20056;-57
2021/03/20 02:05:50;;;;;;;11.82;9.75;;;;;;;-1.10;100.00;96815.88;8354316;28;20037;-57
2021/03/20 02:09:53;;;;;;;12.88;9.80;;;;;;;-0.99;100.00;96818.84;8361164;28;20044;-55
2021/03/20 02:14:05;;;;;;;13.65;9.73;;;;;;;-0.68;100.00;96822.69;8361268;28;22760;-56
2021/03/20 02:18:15;;;;;;;12.30;9.32;;;;;;;-0.63;100.00;96818.16;8386115;28;20041;-57
2021/03/20 02:22:22;;;;;;;13.07;9.80;;;;;;;-0.68;100.00;96819.28;8351555;28;20041;-57
2021/03/20 02:27:10;;;;;;;14.20;10.02;;;;;;;-0.60;100.00;96815.41;8350045;28;20040;-58
2021/03/20 02:31:43;;;;;;;12.18;9.45;;;;;;;-0.61;100.00;96820.69;8318283;28;20059;-58
2021/03/20 02:35:55;;;;;;;11.73;9.43;;;;;;;-0.46;100.00;96814.81;8355774;28;20048;-55
2021/03/20 02:40:00;;;;;;;12.35;8.57;;;;;;;-0.50;100.00;96816.69;8360474;28;20047;-58
2021/03/20 02:44:08;;;;;;;9.95;7.80;;;;;;;-0.46;100.00;96817.41;8388598;28;20383;-58
2021/03/20 02:48:17;;;;;;;10.35;8.20;;;;;;;-0.50;100.00;96818.44;8357086;28;20044;-56
2021/03/20 02:52:24;;;;;;;10.02;7.82;;;;;;;-0.44;100.00;96825.97;8359415;28;20033;-58
2021/03/20 02:56:29;;;;;;;8.70;6.97;;;;;;;-0.61;100.00;96833.63;8350190;28;20041;-55
2021/03/20 03:00:34;;;;;;;8.95;7.88;;;;;;;-0.54;100.00;96832.47;8355729;28;20059;-57
2021/03/20 03:04:42;;;;;;;11.13;7.82;;;;;;;-0.53;100.00;96832.38;8389242;28;20049;-58
2021/03/20 03:08:47;;;;;;;8.32;7.20;;;;;;;-0.55;100.00;96829.03;8354380;28;20043;-57
2021/03/20 03:12:54;;;;;;;9.02;7.70;;;;;;;-0.41;100.00;96831.00;8342438;28;20387;-57
2021/03/20 03:16:59;;;;;;;8.50;7.15;;;;;;;-0.62;100.00;96831.94;8360807;28;20221;-56
2021/03/20 03:21:06;;;;;;;8.13;6.93;;;;;;;-0.72;100.00;96834.94;8383763;28;20051;-59
2021/03/20 03:25:12;;;;;;;8.20;7.18;;;;;;;-0.71;100.00;96830.59;8344830;28;20041;-58
2021/03/20 03:29:19;;;;;;;6.90;6.03;;;;;;;-0.80;100.00;96831.81;8359288;28;20033;-55
2021/03/20 03:33:25;;;;;;;6.85;5.90;;;;;;;-0.90;100.00;96834.88;8358883;28;20051;-55
2021/03/20 03:37:36;;;;;;;8.55;7.55;;;;;;;-0.76;100.00;96832.53;8356134;28;20036;-56
2021/03/20 03:41:40;;;;;;;7.18;6.45;;;;;;;-0.89;100.00;96837.41;8384384;28;20040;-56
2021/03/20 03:45:43;;;;;;;7.50;5.75;;;;;;;-0.83;100.00;96837.13;8342857;28;20040;-56
2021/03/20 03:49:46;;;;;;;6.80;6.03;;;;;;;-0.74;100.00;96836.75;8359511;28;21320;-54
2021/03/20 03:53:48;;;;;;;8.07;6.88;;;;;;;-0.88;100.00;96846.03;8344962;28;20060;-53
2021/03/20 03:58:13;;;;;;;7.03;6.32;;;;;;;-0.90;100.00;96848.66;8353242;28;20044;-54
2021/03/20 04:02:17;;;;;;;8.30;6.65;;;;;;;-0.94;100.00;96846.28;8371262;28;20044;-53
2021/03/20 04:06:49;;;;;;;8.02;6.47;;;;;;;-0.97;100.00;96848.06;8357360;28;20051;-50
2021/03/20 04:10:53;;;;;;;6.95;5.80;;;;;;;-0.95;100.00;96853.19;8356481;28;20047;-53
2021/03/20 04:15:01;;;;;;;7.18;6.43;;;;;;;-0.98;100.00;96855.91;8355106;28;20047;-56
2021/03/20 04:19:09;;;;;;;8.63;7.47;;;;;;;-1.03;100.00;96863.88;8354520;28;20032;-58
2021/03/20 04:23:17;;;;;;;6.32;5.72;;;;;;;-1.09;100.00;96856.38;8377845;28;20112;-54
2021/03/20 04:27:22;;;;;;;7.28;6.57;;;;;;;-1.03;100.00;96861.28;8355899;28;20392;-57
2021/03/20 04:31:28;;;;;;;6.45;5.78;;;;;;;-1.16;100.00;96854.94;8354621;28;20391;-53
2021/03/20 04:35:34;;;;;;;6.70;6.10;;;;;;;-0.99;100.00;96857.66;8350696;28;20253;-52
2021/03/20 04:39:43;;;;;;;6.15;5.55;;;;;;;-1.16;100.00;96859.28;8357890;28;20043;-52
2021/03/20 04:43:49;;;;;;;6.35;5.75;;;;;;;-1.25;100.00;96860.47;8383910;28;20036;-52
2021/03/20 04:47:54;;;;;;;7.07;6.15;;;;;;;-1.24;100.00;96860.44;8353973;28;20043;-56
2021/03/20 04:52:02;;;;;;;6.57;5.97;;;;;;;-1.15;100.00;96863.53;8351225;28;20048;-52
2021/03/20 04:56:09;;;;;;;6.50;5.57;;;;;;;-1.27;100.00;96875.25;8344138;28;20084;-58
2021/03/20 05:00:15;;;;;;;6.68;6.07;;;;;;;-1.13;100.00;96870.34;8348953;28;20470;-51
2021/03/20 05:04:22;;;;;;;7.68;6.35;;;;;;;-1.14;100.00;96884.16;8383827;28;20047;-48
2021/03/20 05:08:29;;;;;;;8.18;7.38;;;;;;;-1.13;100.00;96885.88;8352718;28;20048;-57
2021/03/20 05:12:31;;;;;;;7.25;6.57;;;;;;;-1.18;100.00;96882.59;8358574;28;20037;-56
2021/03/20 05:16:37;;;;;;;8.23;6.10;;;;;;;-1.08;100.00;96883.06;8357113;28;20047;-57
2021/03/20 05:20:41;;;;;;;6.85;6.15;;;;;;;-1.10;100.00;96890.06;8381850;28;20041;-56
2021/03/20 05:24:43;;;;;;;7.97;6.95;;;;;;;-1.00;100.00;96899.13;8344392;28;20051;-57
2021/03/20 05:28:46;;;;;;;7.75;6.95;;;;;;;-1.07;100.00;96897.69;8346697;28;20033;-53
2021/03/20 05:32:48;;;;;;;7.00;6.30;;;;;;;-1.25;100.00;96897.53;8351366;28;20048;-55
2021/03/20 05:36:52;;;;;;;8.00;6.95;;;;;;;-1.30;100.00;96899.47;8358958;28;20045;-55
2021/03/20 05:40:59;;;;;;;7.45;6.75;;;;;;;-1.36;100.00;96904.06;8383825;28;20048;-56
2021/03/20 05:45:24;;;;;;;7.18;6.35;;;;;;;-1.28;100.00;96910.59;8354760;28;20305;-56
2021/03/20 05:49:45;;;;;;;6.45;5.78;;;;;;;-1.24;100.00;96908.72;8350443;28;20033;-51
2021/03/20 05:54:14;;;;;;;6.93;6.22;;;;;;;-1.10;100.00;96910.75;8359758;28;20040;-56
2021/03/20 05:58:33;;;;;;;6.75;5.70;;;;;;;-1.17;100.00;96922.25;8356945;28;20033;-57
2021/03/20 06:02:58;;;;;;;7.38;5.90;;;;;;;-1.13;100.00;96916.91;8353158;28;20036;-54
2021/03/20 06:07:34;;;;;;;6.82;5.88;;;;;;;-1.05;100.00;96926.97;8389144;28;23013;-55
2021/03/20 06:11:46;;;;;;;7.25;6.38;;;;;;;-1.08;100.00;96927.91;8361661;28;20499;-57
2021/03/20 06:16:00;;;;;;;5.78;5.22;;;;;;;-1.11;100.00;96934.97;8354884;28;20032;-53
2021/03/20 06:20:21;;;;;;;8.15;5.90;;;;;;;-1.16;100.00;96936.91;8351090;28;20033;-56
2021/03/20 06:25:00;;;;;;;9.75;7.15;;;;;;;-0.91;100.00;96942.75;8349990;28;20033;-53
2021/03/20 06:29:10;;;;;;;7.20;6.03;;;;;;;-0.77;100.00;96939.59;8324403;28;20047;-56
2021/03/20 06:33:18;;;;;;;8.15;7.35;;;;;;;-0.62;100.00;96945.88;8386433;28;20589;-56
2021/03/20 06:37:26;;;;;;;6.65;5.90;;;;;;;-0.62;100.00;96959.69;8361466;28;20047;-55
2021/03/20 06:41:35;;;;;;;6.75;5.65;;;;;;;-0.61;100.00;96961.38;8353877;28;20064;-56
2021/03/20 06:45:38;;;;;;;8.15;6.57;;;;;;;-0.59;100.00;96972.50;8358147;28;20040;-55
2021/03/20 06:49:45;;;;;;;6.20;5.60;;;;;;;-0.72;100.00;96967.00;8353250;28;20058;-55
2021/03/20 06:53:53;;;;;;;5.47;4.97;;;;;;;-0.64;100.00;96964.09;8383839;28;20051;-54
2021/03/20 06:57:56;;;;;;;6.75;5.40;;;;;;;-0.51;100.00;96969.63;8354744;28;20037;-56
2021/03/20 07:02:03;;;;;;;6.70;5.68;;;;;;;-0.38;100.00;96967.31;8353497;28;20040;-52
2021/03/20 07:06:10;;;;;;;5.47;5.00;;;;;;;-0.46;100.00;96974.59;8348208;28;20043;-55
2021/03/20 07:10:23;;;;;;;5.65;5.05;;;;;;;-0.29;100.00;96977.31;8358121;28;20052;-54
2021/03/20 07:14:42;;;;;;;7.15;5.72;;;;;;;-0.42;100.00;96973.53;8379739;28;20533;-54
2021/03/20 07:18:47;;;;;;;6.63;5.82;;;;;;;-0.56;100.00;96989.66;8350920;28;20041;-53
2021/03/20 07:22:51;;;;;;;6.63;6.03;;;;;;;-0.41;100.00;96988.19;8343379;28;20080;-55
2021/03/20 07:26:55;;;;;;;6.05;5.55;;;;;;;-0.40;100.00;96988.13;8344401;28;20048;-56
2021/03/20 07:31:06;;;;;;;7.03;6.32;;;;;;;-0.29;100.00;96992.84;8343343;28;20565;-55
2021/03/20 07:35:30;;;;;;;7.45;6.35;;;;;;;0.04;100.00;96989.72;8377578;28;20060;-57
2021/03/20 07:39:42;;;;;;;7.47;6.70;;;;;;;0.39;100.00;96998.53;8353005;28;20044;-57
2021/03/20 07:43:59;;;;;;;7.43;6.60;;;;;;;0.57;100.00;96995.09;8358841;28;20376;-51
2021/03/20 07:48:04;;;;;;;6.78;6.10;;;;;;;1.23;100.00;97002.38;8347090;28;20036;-57
2021/03/20 07:52:22;;;;;;;7.32;6.63;;;;;;;2.44;100.00;96998.84;8329756;28;20052;-57
2021/03/20 07:56:34;;;;;;;6.88;6.18;;;;;;;2.87;94.54;97006.13;8379323;28;20502;-57
2021/03/20 08:00:44;;;;;;;6.65;5.93;;;;;;;2.37;100.00;97007.91;8350759;28;20575;-54
2021/03/20 08:05:01;;;;;;;6.75;5.70;;;;;;;1.27;100.00;97014.31;8350112;28;20115;-55
2021/03/20 08:09:27;;;;;;;6.60;5.30;;;;;;;0.54;100.00;97030.72;8356215;28;20044;-55
2021/03/20 08:13:37;;;;;;;5.78;5.25;;;;;;;-0.16;100.00;97038.09;8353324;28;20396;-57
2021/03/20 08:17:41;;;;;;;7.63;5.90;;;;;;;-0.17;100.00;97045.91;8363221;28;20048;-51
2021/03/20 08:22:16;;;;;;;6.97;6.25;;;;;;;-0.09;100.00;97041.25;8381482;28;20044;-58
2021/03/20 08:26:44;;;;;;;7.20;6.50;;;;;;;0.56;100.00;97049.69;8343348;28;20049;-56
2021/03/20 08:30:56;;;;;;;19.15;11.60;;;;;;;1.35;100.00;97043.38;8350427;28;20044;-57
2021/03/20 08:35:06;;;;;;;8.07;6.68;;;;;;;2.17;100.00;97036.72;8352201;28;20335;-58
2021/03/20 08:39:16;;;;;;;;;;;;;;;2.10;100.00;97047.47;8332991;28;20399;-57
2021/03/20 08:43:37;;;;;;;7.20;6.50;;;;;;;1.86;100.00;97056.50;8383798;28;19920;-59
2021/03/20 08:48:09;;;;;;;7.47;6.30;;;;;;;1.18;100.00;97054.56;8360141;28;20403;-57
2021/03/20 08:52:22;;;;;;;6.78;5.93;;;;;;;1.22;100.00;97054.44;8332389;28;20033;-58
2021/03/20 08:56:50;;;;;;;7.68;6.60;;;;;;;1.41;100.00;97061.28;8354150;28;20055;-58
2021/03/20 09:00:58;;;;;;;7.20;6.50;;;;;;;1.93;100.00;97064.81;8349623;28;20051;-60
2021/03/20 09:05:11;;;;;;;7.95;6.93;;;;;;;2.32;100.00;97061.97;8343088;28;20037;-60
2021/03/20 09:09:19;;;;;;;7.85;6.45;;;;;;;1.87;100.00;97072.00;8363670;28;20056;-60
2021/03/20 09:13:25;;;;;;;11.13;6.78;;;;;;;1.61;100.00;97064.66;8355440;28;20048;-59
2021/03/20 09:17:32;;;;;;;9.07;6.55;;;;;;;2.14;100.00;97067.19;8355061;28;20049;-59
2021/03/20 09:21:38;;;;;;;9.27;7.20;;;;;;;2.51;100.00;97067.03;8338176;28;20510;-61
2021/03/20 09:25:42;;;;;;;7.57;6.88;;;;;;;2.85;98.81;97055.69;8350427;28;20095;-61
2021/03/20 09:30:13;;;;;;;7.40;6.70;;;;;;;2.17;93.85;97070.53;8387503;28;20051;-59
2021/03/20 09:34:25;;;;;;;16.60;13.90;;;;;;;2.64;94.23;97055.06;8356866;28;20048;-58
2021/03/20 09:38:48;;;;;;;7.22;6.50;;;;;;;3.05;84.08;97062.44;8358553;28;20052;-61
2021/03/20 09:42:50;;;;;;;6.97;6.28;;;;;;;2.90;100.00;97066.72;8341350;28;20387;-60
2021/03/20 09:47:00;;;;;;;7.10;6.07;;;;;;;2.02;100.00;97069.56;8343302;28;20079;-59
2021/03/20 09:51:42;;;;;;;7.00;5.32;;;;;;;1.54;100.00;97086.66;8387158;28;20695;-60
2021/03/20 09:55:46;;;;;;;8.13;6.63;;;;;;;1.16;100.00;97087.56;8389220;28;20052;-59
2021/03/20 09:59:49;;;;;;;7.95;7.15;;;;;;;1.04;100.00;97088.13;8349969;28;20048;-56
2021/03/20 10:04:42;;;;;;;7.65;5.90;;;;;;;1.00;100.00;97086.59;8355312;28;20115;-60
2021/03/20 10:08:46;;;;;;;8.00;7.18;;;;;;;1.50;100.00;97077.31;8354570;28;20032;-60
2021/03/20 10:12:55;;;;;;;7.45;6.68;;;;;;;1.66;100.00;97078.28;8359288;28;20059;-58
2021/03/20 10:17:05;;;;;;;7.80;7.00;;;;;;;1.69;100.00;97079.88;8383711;28;20060;-58
2021/03/20 10:21:27;;;;;;;7.80;6.95;;;;;;;2.04;97.37;97072.94;8359562;28;20402;-58
2021/03/20 10:25:31;;;;;;;7.53;6.72;;;;;;;2.01;99.64;97075.69;8356471;28;20040;-59
2021/03/20 10:29:43;;;;;;;6.63;5.80;;;;;;;1.75;99.03;97072.59;8354729;28;20336;-60
2021/03/20 10:33:47;;;;;;;6.38;5.78;;;;;;;2.08;91.99;97066.66;8352241;28;20360;-60
2021/03/20 10:37:50;;;;;;;8.18;6.47;;;;;;;2.25;89.88;97071.84;8368127;28;20040;-60
2021/03/20 10:41:56;;;;;;;7.88;6.90;;;;;;;2.95;84.57;97067.28;8352803;28;20044;-60
2021/03/20 10:45:59;;;;;;;7.43;6.63;;;;;;;3.22;82.24;97064.13;8363147;28;20037;-60
2021/03/20 10:50:05;;;;;;;8.68;7.75;;;;;;;3.74;80.46;97071.63;8357012;28;20051;-60
2021/03/20 10:54:11;;;;;;;7.40;6.47;;;;;;;3.42;77.57;97078.66;8348786;28;20052;-58
2021/03/20 10:58:17;;;;;;;7.25;6.55;;;;;;;4.04;71.74;97069.84;8385398;28;20055;-57
2021/03/20 11:02:31;;;;;;;7.07;6.40;;;;;;;4.45;68.56;97061.34;8355417;28;20037;-59
2021/03/20 11:06:17;;;;;;;11.70;9.00;;;;;;;3.61;74.12;97078.44;5030193;27;20544;-59
2021/03/20 11:08:57;;;;;;;7.82;5.80;;;;;;;2.80;81.40;97074.16;5053997;28;20503;-58
2021/03/20 11:11:28;;;;;;;7.68;6.57;;;;;;;2.60;93.75;97072.63;5033225;28;20080;-59
2021/03/20 11:14:02;;;;;;;;;;;;;;;2.70;78.63;97079.94;5054697;28;20072;-59
2021/03/20 11:16:30;;;;;;;7.07;6.00;;;;;;;2.37;82.00;97079.03;5031859;27;19955;-59
2021/03/20 11:19:05;;;;;;;6.13;5.53;;;;;;;2.24;78.04;97088.38;5057013;27;20446;-59
2021/03/20 11:21:35;;;;;;;7.30;6.55;;;;;;;2.50;78.47;97081.00;5028921;28;20076;-59
2021/03/20 11:24:04;;;;;;;;;;;;;;;2.75;77.70;97080.53;5051047;27;20537;-58
2021/03/20 11:26:41;;;;;;;5.72;5.03;;;;;;;2.21;80.19;97093.75;5021904;28;19960;-56
2021/03/20 11:29:14;;;;;;;6.10;5.60;;;;;;;1.89;93.62;97084.94;5061876;28;20463;-60
2021/03/20 11:31:48;;;;;;;5.38;4.88;;;;;;;1.71;96.85;97085.84;5023394;28;20113;-58
2021/03/20 11:34:19;;;;;;;6.97;6.25;;;;;;;1.79;95.34;97100.16;5060237;28;20333;-58
2021/03/20 11:36:48;;;;;;;5.78;5.15;;;;;;;1.66;92.63;97094.72;5025645;28;20550;-55
2021/03/20 11:39:16;;;;;;;7.45;6.13;;;;;;;2.06;86.39;97092.72;5061850;27;20075;-59
2021/03/20 11:41:44;;;;;;;5.57;5.00;;;;;;;1.92;86.07;97089.97;5030755;28;20069;-59
2021/03/20 11:44:20;;;;;;;7.40;6.70;;;;;;;2.08;92.85;97084.88;5059119;28;20079;-59
2021/03/20 11:46:50;;;;;;;6.78;5.60;;;;;;;2.10;87.35;97086.47;5035619;28;20036;-58
2021/03/20 11:49:21;;;;;;;;;;;;;;;2.05;90.76;97092.81;5059589;27;20507;-59
2021/03/20 11:51:50;;;;;;;6.13;5.63;;;;;;;2.19;86.23;97079.13;5027904;28;19964;-58
2021/03/20 11:54:25;;;;;;;6.43;5.82;;;;;;;2.18;89.15;97086.09;5055026;28;20055;-57
2021/03/20 11:56:56;;;;;;;6.85;6.15;;;;;;;2.12;95.46;97076.81;5027141;28;20061;-58
2021/03/20 11:59:37;;;;;;;5.80;4.63;;;;;;;1.98;95.15;97068.03;5056741;27;20080;-59
2021/03/20 12:02:06;;;;;;;5.75;4.93;;;;;;;2.03;83.62;97071.25;5023976;28;20076;-59
2021/03/20 12:04:34;;;;;;;6.72;6.03;;;;;;;2.28;93.85;97065.66;5059661;28;20506;-59
2021/03/20 12:07:23;;;;;;;6.13;5.60;;;;;;;2.17;93.07;97074.00;5027215;28;20091;-58
2021/03/20 12:09:51;;;;;;;7.15;6.22;;;;;;;2.61;81.83;97065.63;5060685;28;20071;-60
2021/03/20 12:12:20;;;;;;;7.55;6.72;;;;;;;2.57;76.65;97062.34;5031074;28;20103;-59
2021/03/20 12:14:49;;;;;;;6.65;6.05;;;;;;;2.63;73.39;97066.41;5057902;28;20080;-57
2021/03/20 12:17:22;;;;;;;6.70;6.03;;;;;;;2.50;78.57;97066.22;5014041;28;20064;-59
2021/03/20 12:20:01;;;;;;;6.32;5.72;;;;;;;2.33;73.81;97063.63;5047898;28;20151;-58
2021/03/20 12:22:42;;;;;;;5.43;4.93;;;;;;;2.50;68.94;97068.81;5007338;28;20751;-58
2021/03/20 12:25:29;;;;;;;6.70;6.07;;;;;;;2.56;70.88;97063.28;5044006;28;20077;-59
2021/03/20 12:28:32;;;;;;;7.15;5.72;;;;;;;2.39;64.40;97060.72;5017756;28;20064;-59
2021/03/20 12:31:08;;;;;;;5.47;5.00;;;;;;;2.73;63.74;97054.59;5045797;28;20625;-57
2021/03/20 12:33:51;;;;;;;5.68;5.18;;;;;;;2.60;64.14;97050.94;5010387;28;20068;-58
2021/03/20 12:36:31;;;;;;;6.00;5.40;;;;;;;2.57;67.69;97054.53;5045767;28;20073;-53
2021/03/20 12:39:00;;;;;;;5.32;4.43;;;;;;;2.63;72.73;97062.97;5013186;28;20087;-53
2021/03/20 12:41:30;;;;;;;4.45;4.05;;;;;;;1.80;95.14;97059.41;5046726;28;20450;-56
2021/03/20 12:44:09;;;;;;;4.40;4.00;;;;;;;1.47;96.59;97056.69;5019339;28;20292;-58
2021/03/20 12:46:39;;;;;;;6.00;4.97;;;;;;;1.55;100.00;97062.34;5043844;28;20070;-59
2021/03/20 12:49:07;;;;;;;4.82;4.35;;;;;;;1.55;100.00;97060.59;5020891;28;20065;-59
2021/03/20 12:51:36;;;;;;;7.43;5.88;;;;;;;1.45;100.00;97054.16;5042931;28;20061;-59
2021/03/20 12:54:04;;;;;;;5.63;5.00;;;;;;;1.32;100.00;97060.88;5008809;28;20113;-59
2021/03/20 12:56:32;;;;;;;5.88;5.28;;;;;;;1.48;100.00;97061.81;5041377;28;20060;-59
2021/03/20 12:59:00;;;;;;;6.70;6.10;;;;;;;1.66;89.25;97060.91;5014315;28;20064;-59
2021/03/20 13:01:30;;;;;;;5.40;4.90;;;;;;;2.17;74.49;97047.13;5042108;28;20452;-59
2021/03/20 13:03:58;;;;;;;6.15;5.47;;;;;;;2.27;79.53;97046.59;5010571;28;20072;-58
2021/03/20 13:06:27;;;;;;;6.10;5.50;;;;;;;2.06;88.47;97050.28;5045500;28;20060;-59
2021/03/20 13:08:54;;;;;;;7.25;5.80;;;;;;;2.07;86.89;97049.38;5033106;28;20064;-51
2021/03/20 13:11:27;;;;;;;6.03;5.43;;;;;;;2.26;78.90;97047.50;5036536;28;20083;-59
2021/03/20 13:13:55;;;;;;;5.50;5.00;;;;;;;2.44;73.03;97039.66;5041725;28;20087;-58
2021/03/20 13:16:22;;;;;;;5.78;5.28;;;;;;;3.40;80.47;97039.63;5000831;28;20081;-58
2021/03/20 13:18:50;;;;;;;5.28;4.78;;;;;;;3.14;73.91;97040.25;5035768;28;20491;-58
2021/03/20 13:21:19;;;;;;;5.88;5.32;;;;;;;3.21;73.67;97036.38;5003297;28;20061;-59
2021/03/20 13:23:46;;;;;;;5.80;5.30;;;;;;;3.22;77.16;97048.47;5034216;28;20073;-58
2021/03/20 13:26:14;;;;;;;7.70;4.82;;;;;;;2.51;92.41;97057.50;5007308;28;20033;-61
2021/03/20 13:28:43;;;;;;;4.78;4.05;;;;;;;1.69;92.62;97053.88;5045284;28;20060;-57
2021/03/20 13:31:12;;;;;;;6.35;4.88;;;;;;;1.48;83.37;97056.63;5013737;28;20064;-59
2021/03/20 13:33:41;;;;;;;6.50;5.10;;;;;;;1.63;89.17;97048.06;5045983;28;20068;-59
2021/03/20 13:36:09;;;;;;;5.13;4.63;;;;;;;1.59;73.42;97059.53;5013429;28;20080;-59
2021/03/20 13:38:37;;;;;;;5.93;4.65;;;;;;;1.51;72.88;97059.06;5045420;28;20080;-59
2021/03/20 13:41:05;;;;;;;5.28;4.85;;;;;;;1.64;80.43;97056.69;5016753;28;20069;-59
2021/03/20 13:43:33;;;;;;;6.07;5.50;;;;;;;1.95;84.34;97043.03;5044720;28;20068;-53
2021/03/20 13:46:01;;;;;;;6.05;5.45;;;;;;;1.88;78.26;97049.44;5017351;28;20083;-59
2021/03/20 13:48:47;;;;;;;6.00;5.40;;;;;;;2.21;82.61;97043.47;5048883;28;20138;-57
2021/03/20 13:51:14;;;;;;;6.30;5.68;;;;;;;1.91;77.31;97044.09;5003945;28;20452;-57
2021/03/20 13:53:42;;;;;;;6.30;5.70;;;;;;;1.52;71.15;97039.97;5041391;28;20056;-59
2021/03/20 13:56:11;;;;;;;6.40;5.80;;;;;;;1.69;72.93;97046.06;5010008;28;22763;-59
2021/03/20 13:58:38;;;;;;;5.93;5.32;;;;;;;2.32;73.50;97043.75;5043743;28;20433;-59
2021/03/20 14:01:07;;;;;;;6.20;5.60;;;;;;;2.57;71.98;97038.94;5010691;28;20069;-56
2021/03/20 14:03:35;;;;;;;6.95;5.88;;;;;;;2.70;75.69;97046.09;5040898;28;20064;-60
2021/03/20 14:06:04;;;;;;;6.10;5.50;;;;;;;1.99;85.33;97048.91;5046526;28;20486;-59
2021/03/20 14:08:32;;;;;;;6.47;5.88;;;;;;;2.20;87.90;97047.81;5014352;28;20168;-57
2021/03/20 14:11:02;;;;;;;4.80;4.40;;;;;;;1.97;83.85;97046.41;5042105;28;20123;-57
2021/03/20 14:13:30;;;;;;;5.82;5.32;;;;;;;1.66;79.27;97050.53;5019466;28;20079;-58
2021/03/20 14:15:57;;;;;;;5.78;5.18;;;;;;;1.61;77.91;97055.09;5043394;28;20075;-58
2021/03/20 14:18:27;;;;;;;6.90;5.30;;;;;;;1.99;85.41;97048.91;5019925;28;20482;-59
2021/03/20 14:20:57;;;;;;;20.17;12.93;;;;;;;2.25;69.41;97048.44;5038863;28;20056;-56
2021/03/20 14:23:24;;;;;;;6.90;6.00;;;;;;;2.48;67.38;97046.38;5005592;28;20095;-59
2021/03/20 14:25:53;;;;;;;6.43;5.82;;;;;;;2.57;64.15;97046.75;5043205;28;20081;-59
2021/03/20 14:28:26;;;;;;;6.75;6.07;;;;;;;2.64;67.80;97039.44;5007427;28;20073;-55
2021/03/20 14:30:56;;;;;;;6.18;5.60;;;;;;;2.93;91.16;97040.50;5043951;28;20075;-60
2021/03/20 14:33:25;;;;;;;5.60;5.10;;;;;;;2.69;69.19;97036.63;5007986;28;20464;-59
2021/03/20 14:35:56;;;;;;;6.10;5.55;;;;;;;2.59;76.41;97036.25;5045615;28;20069;-60
2021/03/20 14:38:25;;;;;;;6.47;5.80;;;;;;;2.99;68.04;97032.31;5011325;28;20087;-59
2021/03/20 14:40:54;;;;;;;7.30;5.10;;;;;;;2.81;67.55;97039.38;5047651;28;20507;-58
2021/03/20 14:43:21;;;;;;;6.38;5.68;;;;;;;2.97;66.39;97039.41;5016240;28;20562;-59
2021/03/20 14:45:49;;;;;;;6.30;5.30;;;;;;;3.08;73.67;97038.81;5043850;28;20519;-57
2021/03/20 14:48:19;;;;;;;6.13;5.43;;;;;;;3.87;65.16;97035.25;5011872;28;20065;-59
2021/03/20 14:50:48;;;;;;;6.80;5.68;;;;;;;4.08;51.04;97026.16;5040640;28;20077;-59
2021/03/20 14:53:17;;;;;;;6.25;5.65;;;;;;;4.22;48.83;97014.88;5009632;28;20085;-59
2021/03/20 14:55:44;;;;;;;6.25;5.35;;;;;;;4.39;51.48;97025.16;5041538;28;20068;-57
2021/03/20 14:58:13;;;;;;;6.05;5.53;;;;;;;3.96;49.93;97027.72;5021866;28;20068;-51
2021/03/20 15:00:43;;;;;;;6.10;5.53;;;;;;;3.40;57.98;97037.00;5038925;28;20068;-58
2021/03/20 15:03:12;;;;;;;6.70;5.45;;;;;;;3.09;58.23;97043.09;5044376;28;20079;-54
2021/03/20 15:05:42;;;;;;;6.13;5.43;;;;;;;2.85;80.77;97046.09;5009435;28;20137;-59
2021/03/20 15:08:12;;;;;;;6.50;5.82;;;;;;;2.76;80.54;97045.78;5035327;28;20072;-59
2021/03/20 15:10:42;;;;;;;6.70;4.65;;;;;;;2.22;76.88;97050.34;5017345;28;20068;-60
2021/03/20 15:13:29;;;;;;;5.50;4.60;;;;;;;1.91;85.12;97051.91;5040847;28;20074;-58
2021/03/20 15:15:56;;;;;;;6.10;5.50;;;;;;;2.01;78.76;97041.88;5018702;28;20067;-53
2021/03/20 15:18:27;;;;;;;6.13;5.53;;;;;;;1.97;83.90;97043.78;5041048;28;20086;-58
2021/03/20 15:20:55;;;;;;;6.57;5.95;;;;;;;1.95;75.51;97042.19;5010217;28;20075;-59
2021/03/20 15:23:25;;;;;;;6.20;5.40;;;;;;;2.02;76.12;97041.78;5033540;28;20064;-59
2021/03/20 15:25:54;;;;;;;6.00;5.38;;;;;;;2.09;68.83;97037.94;5005050;28;20064;-59
2021/03/20 15:28:23;;;;;;;6.22;5.50;;;;;;;2.14;66.72;97030.78;5038887;28;20136;-57
2021/03/20 15:30:50;;;;;;;5.78;5.18;;;;;;;2.25;59.78;97031.97;5009386;28;20065;-59
2021/03/20 15:33:23;;;;;;;7.40;5.47;;;;;;;2.44;60.82;97030.06;5043603;28;20083;-52
2021/03/20 15:35:51;;;;;;;7.00;5.15;;;;;;;2.13;60.26;97033.44;5009822;28;20460;-55
2021/03/20 15:38:20;;;;;;;5.97;5.38;;;;;;;2.44;62.26;97031.84;5045126;28;20120;-59
2021/03/20 15:40:49;;;;;;;5.72;5.22;;;;;;;2.09;60.26;97026.72;5015054;28;20072;-59
2021/03/20 15:43:21;;;;;;;6.47;5.88;;;;;;;2.04;65.43;97032.16;5048029;28;20072;-59
2021/03/20 15:45:49;;;;;;;6.60;5.30;;;;;;;2.12;65.42;97018.75;5016412;28;20072;-59
2021/03/20 15:48:17;;;;;;;7.03;5.40;;;;;;;2.16;65.58;97016.84;5044109;28;20075;-59
2021/03/20 15:50:47;;;;;;;5.72;5.05;;;;;;;2.14;69.10;97025.56;5008963;28;20073;-59
2021/03/20 15:53:15;;;;;;;5.68;5.18;;;;;;;2.33;69.05;97022.00;5045134;28;20546;-57
2021/03/20 15:55:44;;;;;;;6.25;5.65;;;;;;;2.35;63.59;97012.38;5018766;28;20076;-56
2021/03/20 15:58:12;;;;;;;5.60;5.10;;;;;;;1.93;61.05;97013.66;5044131;28;20064;-60
2021/03/20 16:00:41;;;;;;;5.85;5.35;;;;;;;1.96;63.25;97013.50;5020173;28;20068;-60
2021/03/20 16:03:08;;;;;;;5.72;5.10;;;;;;;2.04;62.88;97015.72;5042132;28;20468;-57
2021/03/20 16:05:37;;;;;;;6.10;5.50;;;;;;;1.93;63.06;97010.19;5041247;28;20084;-58
2021/03/20 16:08:05;;;;;;;5.78;5.10;;;;;;;2.02;63.72;97015.78;5021201;28;20519;-54
2021/03/20 16:10:36;;;;;;;5.75;5.07;;;;;;;1.99;63.78;97013.31;5024646;28;20068;-55
2021/03/20 16:13:04;;;;;;;6.15;4.90;;;;;;;2.04;56.53;97024.34;5016386;28;20069;-59
2021/03/20 16:15:31;;;;;;;6.03;5.53;;;;;;;1.82;70.55;97014.19;5044786;28;20718;-59